createdAt,value
2023-02-19T00:01:11.063Z,98399.75
2023-02-19T00:04:19.543Z,98406.13
2023-02-19T00:07:22.289Z,98399.81
2023-02-19T00:10:25.253Z,98404.56
2023-02-19T00:13:27.866Z,98407.63
2023-02-19T00:16:33.439Z,98411.34
2023-02-19T00:19:35.994Z,98396.56
2023-02-19T00:22:38.832Z,98404.88
2023-02-19T00:25:41.423Z,98408.06
2023-02-19T00:28:45.080Z,98406.53
2023-02-19T00:31:47.898Z,98421.66
2023-02-19T00:34:51.003Z,98433.47
2023-02-19T00:37:53.623Z,98429.06
2023-02-19T00:40:56.480Z,98439.75
2023-02-19T00:44:00.247Z,98443.38
2023-02-19T00:47:03.252Z,98434.62
2023-02-19T00:50:06.671Z,98447.56
2023-02-19T00:53:10.140Z,98449.50
2023-02-19T00:56:13.076Z,98429.38
2023-02-19T00:59:16.053Z,98456.63
2023-02-19T01:02:19.215Z,98460.38
2023-02-19T01:05:22.163Z,98466.97
2023-02-19T01:08:25.040Z,98461.22
2023-02-19T01:11:28.009Z,98476.81
2023-02-19T01:14:30.592Z,98468.06
2023-02-19T01:17:35.799Z,98471.00
2023-02-19T01:20:44.133Z,98466.63
2023-02-19T01:23:48.479Z,98462.34
2023-02-19T01:26:51.126Z,98483.03
2023-02-19T01:29:54.355Z,98468.81
2023-02-19T01:32:56.927Z,98475.31
2023-02-19T01:36:00.406Z,98472.81
2023-02-19T01:39:05.310Z,98458.78
2023-02-19T01:42:14.228Z,98455.53
2023-02-19T01:45:24.736Z,98443.00
2023-02-19T01:48:32.755Z,98450.44
2023-02-19T01:51:38.341Z,98446.91
2023-02-19T01:54:43.393Z,98422.41
2023-02-19T01:57:47.994Z,98440.22
2023-02-19T02:00:52.803Z,98446.72
2023-02-19T02:03:56.098Z,98442.56
2023-02-19T02:07:00.152Z,98432.91
2023-02-19T02:10:23.068Z,98409.38
2023-02-19T02:13:26.436Z,98413.75
2023-02-19T02:16:48.038Z,98427.16
2023-02-19T02:20:03.752Z,98454.06
2023-02-19T02:23:16.837Z,98444.31
2023-02-19T02:26:52.407Z,98457.03
2023-02-19T02:30:17.940Z,98444.94
2023-02-19T02:33:20.958Z,98441.50
2023-02-19T02:36:28.239Z,98427.22
2023-02-19T02:39:32.516Z,98404.31
2023-02-19T02:42:39.660Z,98418.47
2023-02-19T02:45:42.716Z,98421.94
2023-02-19T02:48:55.524Z,98425.41
2023-02-19T02:51:59.683Z,98423.78
2023-02-19T02:55:05.508Z,98438.72
2023-02-19T02:58:09.084Z,98444.81
2023-02-19T03:02:01.837Z,98428.00
2023-02-19T03:05:32.241Z,98431.66
2023-02-19T03:08:56.052Z,98433.47
2023-02-19T03:12:20.411Z,98431.03
2023-02-19T03:15:43.951Z,98441.09
2023-02-19T03:19:09.123Z,98437.72
2023-02-19T03:22:20.055Z,98434.34
2023-02-19T03:25:44.696Z,98437.09
2023-02-19T03:29:08.900Z,98446.87
2023-02-19T03:32:21.311Z,98454.09
2023-02-19T03:35:32.235Z,98428.03
2023-02-19T03:38:43.344Z,98449.91
2023-02-19T03:42:06.338Z,98459.59
2023-02-19T03:45:22.553Z,98463.19
2023-02-19T03:48:35.137Z,98448.94
2023-02-19T03:51:49.441Z,98453.50
2023-02-19T03:55:22.655Z,98454.44
2023-02-19T03:58:34.832Z,98462.47
2023-02-19T04:01:56.548Z,98450.09
2023-02-19T04:05:09.813Z,98457.25
2023-02-19T04:08:18.408Z,98462.66
2023-02-19T04:11:23.164Z,98458.16
2023-02-19T04:14:43.321Z,98445.66
2023-02-19T04:17:51.586Z,98443.91
2023-02-19T04:20:55.341Z,98427.41
2023-02-19T04:24:04.156Z,98450.97
2023-02-19T04:27:07.276Z,98458.00
2023-02-19T04:30:13.346Z,98450.12
2023-02-19T04:33:16.046Z,98451.91
2023-02-19T04:36:18.901Z,98449.41
2023-02-19T04:39:21.986Z,98439.69
2023-02-19T04:42:25.012Z,98438.87
2023-02-19T04:45:27.498Z,98441.34
2023-02-19T04:48:30.423Z,98444.00
2023-02-19T04:51:33.333Z,98422.13
2023-02-19T04:54:36.292Z,98429.00
2023-02-19T04:57:38.873Z,98429.88
2023-02-19T05:00:41.878Z,98435.19
2023-02-19T05:03:44.552Z,98430.50
2023-02-19T05:06:47.515Z,98424.25
2023-02-19T05:09:50.039Z,98424.28
2023-02-19T05:12:57.553Z,98419.72
2023-02-19T05:16:03.201Z,98390.78
2023-02-19T05:19:06.559Z,98407.37
2023-02-19T05:22:09.186Z,98409.94
2023-02-19T05:25:12.080Z,98407.19
2023-02-19T05:28:17.620Z,98405.53
2023-02-19T05:31:21.576Z,98407.22
2023-02-19T05:34:24.478Z,98410.75
2023-02-19T05:37:27.691Z,98406.28
2023-02-19T05:40:30.530Z,98415.22
2023-02-19T05:43:33.389Z,98423.16
2023-02-19T05:46:36.041Z,98426.75
2023-02-19T05:49:38.958Z,98432.09
2023-02-19T05:52:41.605Z,98430.28
2023-02-19T05:55:44.541Z,98439.13
2023-02-19T05:58:47.123Z,98431.19
2023-02-19T06:01:51.358Z,98426.66
2023-02-19T06:04:54.169Z,98417.81
2023-02-19T06:07:56.680Z,98429.00
2023-02-19T06:10:59.610Z,98434.22
2023-02-19T06:14:02.134Z,98433.25
2023-02-19T06:17:04.962Z,98430.50
2023-02-19T06:20:07.877Z,98430.34
2023-02-19T06:23:11.063Z,98437.47
2023-02-19T06:26:18.061Z,98440.91
2023-02-19T06:29:20.962Z,98430.34
2023-02-19T06:32:24.394Z,98440.91
2023-02-19T06:35:27.427Z,98424.94
2023-02-19T06:38:30.412Z,98432.97
2023-02-19T06:41:33.469Z,98424.03
2023-02-19T06:44:36.297Z,98434.53
2023-02-19T06:47:39.251Z,98420.19
2023-02-19T06:50:41.788Z,98411.06
2023-02-19T06:53:44.850Z,98417.25
2023-02-19T06:56:47.441Z,98426.03
2023-02-19T06:59:50.448Z,98415.13
2023-02-19T07:02:56.742Z,98422.06
2023-02-19T07:06:00.814Z,98419.38
2023-02-19T07:09:05.355Z,98430.91
2023-02-19T07:12:08.270Z,98399.22
2023-02-19T07:15:10.959Z,98434.53
2023-02-19T07:18:13.921Z,98439.06
2023-02-19T07:21:17.498Z,98438.19
2023-02-19T07:24:21.702Z,98433.03
2023-02-19T07:27:24.347Z,98428.53
2023-02-19T07:30:27.602Z,98433.03
2023-02-19T07:33:30.659Z,98422.34
2023-02-19T07:36:33.560Z,98417.03
2023-02-19T07:39:36.125Z,98418.84
2023-02-19T07:42:39.265Z,98404.59
2023-02-19T07:45:41.959Z,98403.66
2023-02-19T07:48:45.561Z,98394.78
2023-02-19T07:51:48.683Z,98392.81
2023-02-19T07:54:51.920Z,98378.50
2023-02-19T07:57:54.436Z,98396.28
2023-02-19T08:00:57.729Z,98397.19
2023-02-19T08:04:00.529Z,98395.56
2023-02-19T08:07:03.129Z,98419.47
2023-02-19T08:10:25.047Z,98426.56
2023-02-19T08:13:30.170Z,98434.53
2023-02-19T08:16:42.462Z,98434.38
2023-02-19T08:19:45.285Z,98423.47
2023-02-19T08:22:48.434Z,98427.69
2023-02-19T08:25:52.015Z,98428.44
2023-02-19T08:28:54.967Z,98433.59
2023-02-19T08:31:57.590Z,98423.37
2023-02-19T08:35:00.572Z,98423.56
2023-02-19T08:38:04.929Z,98418.69
2023-02-19T08:41:09.924Z,98420.31
2023-02-19T08:44:12.727Z,98422.94
2023-02-19T08:47:15.595Z,98429.28
2023-02-19T08:50:18.283Z,98423.22
2023-02-19T08:53:21.164Z,98415.37
2023-02-19T08:56:23.910Z,98417.44
2023-02-19T08:59:29.089Z,98432.78
2023-02-19T09:02:31.573Z,98432.88
2023-02-19T09:05:34.535Z,98419.62
2023-02-19T09:08:37.037Z,98432.16
2023-02-19T09:11:40.110Z,98433.06
2023-02-19T09:14:42.829Z,98426.84
2023-02-19T09:17:45.668Z,98428.66
2023-02-19T09:20:48.258Z,98425.19
2023-02-19T09:23:51.130Z,98415.50
2023-02-19T09:26:54.890Z,98420.12
2023-02-19T09:29:58.205Z,98426.53
2023-02-19T09:33:00.710Z,98420.41
2023-02-19T09:36:06.146Z,98427.62
2023-02-19T09:39:10.470Z,98434.81
2023-02-19T09:42:19.560Z,98430.37
2023-02-19T09:45:24.417Z,98425.09
2023-02-19T09:48:27.354Z,98430.56
2023-02-19T09:51:31.734Z,98434.28
2023-02-19T09:54:36.657Z,98431.63
2023-02-19T09:57:40.249Z,98423.47
2023-02-19T10:00:43.581Z,98385.56
2023-02-19T10:03:48.383Z,98392.25
2023-02-19T10:06:51.937Z,98381.44
2023-02-19T10:10:01.224Z,98356.50
2023-02-19T10:13:33.404Z,98368.75
2023-02-19T10:16:40.701Z,98360.84
2023-02-19T10:19:43.974Z,98353.81
2023-02-19T10:22:46.849Z,98354.19
2023-02-19T10:25:57.380Z,98354.13
2023-02-19T10:29:01.552Z,98337.66
2023-02-19T10:32:13.278Z,98323.44
2023-02-19T10:35:16.872Z,98350.44
2023-02-19T10:38:20.974Z,98345.91
2023-02-19T10:41:25.759Z,98334.78
2023-02-19T10:44:31.963Z,98321.75
2023-02-19T10:47:35.950Z,98314.06
2023-02-19T10:50:44.525Z,98317.84
2023-02-19T10:53:52.675Z,98312.06
2023-02-19T10:56:55.339Z,98310.13
2023-02-19T11:00:01.256Z,98306.63
2023-02-19T11:03:21.913Z,98316.37
2023-02-19T11:06:27.121Z,98308.69
2023-02-19T11:09:38.297Z,98300.03
2023-02-19T11:12:41.393Z,98305.50
2023-02-19T11:15:44.468Z,98288.66
2023-02-19T11:18:57.153Z,98276.00
2023-02-19T11:22:01.285Z,98289.66
2023-02-19T11:25:10.463Z,98290.31
2023-02-19T11:28:36.023Z,98293.25
2023-02-19T11:31:38.963Z,98289.47
2023-02-19T11:34:42.115Z,98280.44
2023-02-19T11:37:59.433Z,98274.31
2023-02-19T11:41:45.469Z,98246.72
2023-02-19T11:45:13.190Z,98261.59
2023-02-19T11:48:41.965Z,98259.91
2023-02-19T11:51:51.486Z,98262.50
2023-02-19T11:55:16.640Z,98260.69
2023-02-19T11:58:25.993Z,98252.78
2023-02-19T12:01:47.109Z,98246.72
2023-02-19T12:05:23.379Z,98230.41
2023-02-19T12:08:53.762Z,98220.25
2023-02-19T12:12:09.665Z,98222.91
2023-02-19T12:15:15.241Z,98218.78
2023-02-19T12:18:39.542Z,98221.47
2023-02-19T12:22:09.940Z,98207.69
2023-02-19T12:25:26.142Z,98223.34
2023-02-19T12:28:53.371Z,98197.97
2023-02-19T12:32:21.452Z,98193.63
2023-02-19T12:35:47.639Z,98191.56
2023-02-19T12:39:28.136Z,98195.47
2023-02-19T12:43:10.944Z,98214.84
2023-02-19T12:46:26.138Z,98233.28
2023-02-19T12:49:32.729Z,98221.72
2023-02-19T12:52:41.627Z,98223.72
2023-02-19T12:55:45.497Z,98225.03
2023-02-19T12:58:51.154Z,98216.84
2023-02-19T13:02:21.216Z,98234.88
2023-02-19T13:05:34.944Z,98218.59
2023-02-19T13:09:16.831Z,98224.34
2023-02-19T13:12:41.935Z,98225.81
2023-02-19T13:15:48.560Z,98219.72
2023-02-19T13:18:58.674Z,98198.31
2023-02-19T13:22:26.109Z,98215.63
2023-02-19T13:25:57.335Z,98219.06
2023-02-19T13:29:06.544Z,98207.03
2023-02-19T13:32:18.715Z,98199.66
2023-02-19T13:35:30.692Z,98193.56
2023-02-19T13:38:43.793Z,98190.72
2023-02-19T13:41:57.226Z,98189.66
2023-02-19T13:45:02.481Z,98174.50
2023-02-19T13:48:29.183Z,98191.16
2023-02-19T13:51:35.073Z,98199.84
2023-02-19T13:54:40.254Z,98209.94
2023-02-19T13:57:44.904Z,98207.78
2023-02-19T14:00:53.477Z,98204.88
2023-02-19T14:04:19.434Z,98213.12
2023-02-19T14:07:35.117Z,98202.00
2023-02-19T14:10:45.924Z,98186.66
2023-02-19T14:13:51.888Z,98217.09
2023-02-19T14:16:57.457Z,98208.88
2023-02-19T14:20:43.610Z,98229.28
2023-02-19T14:23:53.155Z,98245.22
2023-02-19T14:26:56.910Z,98245.47
2023-02-19T14:30:00.241Z,98250.72
2023-02-19T14:33:11.610Z,98245.25
2023-02-19T14:36:26.694Z,98268.31
2023-02-19T14:39:31.521Z,98260.09
2023-02-19T14:42:35.567Z,98258.78
2023-02-19T14:45:42.341Z,98266.16
2023-02-19T14:48:47.140Z,98270.63
2023-02-19T14:51:57.016Z,98268.00
2023-02-19T14:55:03.998Z,98257.56
2023-02-19T14:58:11.998Z,98251.56
2023-02-19T15:01:28.553Z,98290.88
2023-02-19T15:04:37.393Z,98276.03
2023-02-19T15:07:42.158Z,98280.75
2023-02-19T15:10:45.110Z,98289.13
2023-02-19T15:13:52.503Z,98288.38
2023-02-19T15:16:59.771Z,98307.38
2023-02-19T15:20:11.554Z,98320.75
2023-02-19T15:23:22.401Z,98334.50
2023-02-19T15:26:43.181Z,98341.03
2023-02-19T15:29:53.280Z,98351.03
2023-02-19T15:33:00.635Z,98333.16
2023-02-19T15:36:06.202Z,98341.44
2023-02-19T15:39:17.901Z,98333.59
2023-02-19T15:42:24.627Z,98362.34
2023-02-19T15:45:41.210Z,98342.03
2023-02-19T15:48:58.335Z,98352.19
2023-02-19T15:52:22.693Z,98339.94
2023-02-19T15:55:39.518Z,98331.25
2023-02-19T15:58:58.498Z,98337.06
2023-02-19T16:02:03.513Z,98347.31
2023-02-19T16:05:16.038Z,98348.59
2023-02-19T16:08:20.583Z,98348.00
2023-02-19T16:11:24.381Z,98350.81
2023-02-19T16:14:33.866Z,98358.09
2023-02-19T16:17:37.637Z,98351.78
2023-02-19T16:20:40.555Z,98355.47
2023-02-19T16:23:46.056Z,98357.41
2023-02-19T16:26:48.861Z,98371.84
2023-02-19T16:29:52.300Z,98366.66
2023-02-19T16:33:32.926Z,98362.28
2023-02-19T16:36:42.811Z,98371.41
2023-02-19T16:39:45.533Z,98382.22
2023-02-19T16:42:49.421Z,98372.44
2023-02-19T16:45:52.560Z,98386.84
2023-02-19T16:48:55.985Z,98394.88
2023-02-19T16:51:59.815Z,98398.50
2023-02-19T16:55:03.817Z,98399.50
2023-02-19T16:58:06.403Z,98398.72
2023-02-19T17:01:10.002Z,98409.56
2023-02-19T17:04:15.298Z,98419.50
2023-02-19T17:07:18.778Z,98411.94
2023-02-19T17:10:24.108Z,98438.47
2023-02-19T17:13:27.433Z,98429.69
2023-02-19T17:16:34.279Z,98446.78
2023-02-19T17:19:39.516Z,98427.72
2023-02-19T17:22:42.581Z,98446.31
2023-02-19T17:25:45.837Z,98446.44
2023-02-19T17:28:49.135Z,98438.69
2023-02-19T17:31:52.434Z,98438.72
2023-02-19T17:34:55.233Z,98430.87
2023-02-19T17:37:58.434Z,98429.19
2023-02-19T17:41:01.872Z,98415.09
2023-02-19T17:44:05.018Z,98410.69
2023-02-19T17:47:07.868Z,98415.31
2023-02-19T17:50:22.780Z,98414.50
2023-02-19T17:53:25.624Z,98416.47
2023-02-19T17:56:28.805Z,98417.44
2023-02-19T17:59:31.437Z,98425.53
2023-02-19T18:02:34.812Z,98439.03
2023-02-19T18:05:37.686Z,98448.81
2023-02-19T18:08:47.434Z,98387.16
2023-02-19T18:11:50.495Z,98446.94
2023-02-19T18:14:54.687Z,98461.34
2023-02-19T18:17:58.377Z,98461.50
2023-02-19T18:21:01.187Z,98481.16
2023-02-19T18:24:04.665Z,98489.28
2023-02-19T18:27:07.558Z,98490.19
2023-02-19T18:30:11.705Z,98489.34
2023-02-19T18:33:14.660Z,98488.50
2023-02-19T18:36:17.798Z,98493.06
2023-02-19T18:39:20.840Z,98490.50
2023-02-19T18:42:23.936Z,98487.03
2023-02-19T18:45:27.625Z,98490.66
2023-02-19T18:48:30.861Z,98494.34
2023-02-19T18:51:35.020Z,98497.94
2023-02-19T18:54:38.071Z,98491.84
2023-02-19T18:57:42.131Z,98497.13
2023-02-19T19:00:45.986Z,98525.69
2023-02-19T19:03:49.486Z,98534.72
2023-02-19T19:06:52.557Z,98539.25
2023-02-19T19:09:55.789Z,98538.44
2023-02-19T19:12:59.083Z,98548.31
2023-02-19T19:16:02.552Z,98573.38
2023-02-19T19:19:09.712Z,98578.88
2023-02-19T19:22:12.858Z,98589.66
2023-02-19T19:25:18.731Z,98586.28
2023-02-19T19:28:22.068Z,98595.28
2023-02-19T19:31:25.988Z,98595.38
2023-02-19T19:34:29.345Z,98587.50
2023-02-19T19:37:32.813Z,98593.75
2023-02-19T19:40:35.632Z,98604.59
2023-02-19T19:43:39.448Z,98595.69
2023-02-19T19:46:45.789Z,98607.31
2023-02-19T19:49:49.121Z,98608.28
2023-02-19T19:52:51.814Z,98613.72
2023-02-19T19:55:55.228Z,98627.06
2023-02-19T19:58:58.502Z,98628.84
2023-02-19T20:02:03.176Z,98632.41
2023-02-19T20:05:07.891Z,98643.19
2023-02-19T20:08:10.889Z,98646.69
2023-02-19T20:11:14.011Z,98644.09
2023-02-19T20:14:18.251Z,98653.06
2023-02-19T20:17:21.777Z,98650.53
2023-02-19T20:20:25.023Z,98666.59
2023-02-19T20:23:28.774Z,98669.31
2023-02-19T20:26:32.289Z,98680.03
2023-02-19T20:29:36.399Z,98670.22
2023-02-19T20:32:39.626Z,98687.06
2023-02-19T20:35:42.739Z,98694.25
2023-02-19T20:38:45.624Z,98689.84
2023-02-19T20:41:50.522Z,98704.09
2023-02-19T20:44:53.558Z,98719.22
2023-02-19T20:47:57.225Z,98725.47
2023-02-19T20:51:00.708Z,98729.91
2023-02-19T20:54:04.000Z,98730.03
2023-02-19T20:57:07.041Z,98738.94
2023-02-19T21:00:11.750Z,98743.53
2023-02-19T21:03:15.721Z,98732.31
2023-02-19T21:06:19.005Z,98758.91
2023-02-19T21:09:23.331Z,98762.56
2023-02-19T21:12:27.093Z,98768.03
2023-02-19T21:15:30.278Z,98768.16
2023-02-19T21:18:33.386Z,98779.78
2023-02-19T21:21:36.594Z,98787.78
2023-02-19T21:24:39.757Z,98801.09
2023-02-19T21:27:43.562Z,98807.31
2023-02-19T21:30:46.722Z,98815.28
2023-02-19T21:33:49.647Z,98810.94
2023-02-19T21:36:53.949Z,98800.50
2023-02-19T21:39:58.786Z,98835.09
2023-02-19T21:43:01.972Z,98836.03
2023-02-19T21:46:04.908Z,98834.41
2023-02-19T21:49:07.894Z,98847.00
2023-02-19T21:52:10.648Z,98850.63
2023-02-19T21:55:13.819Z,98850.72
2023-02-19T21:58:16.814Z,98864.16
2023-02-19T22:01:28.249Z,98858.06
2023-02-19T22:04:31.172Z,98860.81
2023-02-19T22:07:33.691Z,98879.53
2023-02-19T22:10:40.966Z,98870.69
2023-02-19T22:13:43.526Z,98876.03
2023-02-19T22:16:46.965Z,98880.50
2023-02-19T22:19:49.645Z,98888.56
2023-02-19T22:22:52.676Z,98887.72
2023-02-19T22:25:55.304Z,98893.16
2023-02-19T22:28:59.614Z,98894.09
2023-02-19T22:32:02.328Z,98891.50
2023-02-19T22:35:05.366Z,98892.38
2023-02-19T22:38:08.012Z,98902.19
2023-02-19T22:41:11.249Z,98901.31
2023-02-19T22:44:14.179Z,98899.56
2023-02-19T22:47:19.254Z,98914.66
2023-02-19T22:50:23.794Z,98930.59
2023-02-19T22:53:26.661Z,98936.88
2023-02-19T22:56:29.518Z,98950.19
2023-02-19T22:59:32.560Z,98952.84
2023-02-19T23:02:35.586Z,98959.06
2023-02-19T23:05:38.439Z,98966.13
2023-02-19T23:08:42.444Z,98974.16
2023-02-19T23:11:45.832Z,98978.59
2023-02-19T23:14:48.444Z,98990.16
2023-02-19T23:17:51.511Z,98987.50
2023-02-19T23:20:54.100Z,98983.03
2023-02-19T23:23:57.157Z,98991.06
2023-02-19T23:27:00.666Z,98999.03
2023-02-19T23:30:03.746Z,99010.53
2023-02-19T23:33:06.348Z,98997.25
2023-02-19T23:36:10.562Z,99015.84
2023-02-19T23:39:15.708Z,99022.06
2023-02-19T23:42:18.766Z,99031.84
2023-02-19T23:45:21.423Z,99032.72
2023-02-19T23:48:24.927Z,99042.47
2023-02-19T23:51:27.740Z,99043.38
2023-02-19T23:54:31.465Z,99052.22
2023-02-19T23:57:34.196Z,99056.66
